sensor_id;sensor_type;location;lat;lon;timestamp;P1;durP1;ratioP1;P2;durP2;ratioP2
66830;SDS011;53739;44.224;22.528;2023-06-22T00:02:21;18.20;;;12.18;;
66830;SDS011;53739;44.224;22.528;2023-06-22T00:04:47;14.10;;;12.32;;
66830;SDS011;53739;44.224;22.528;2023-06-22T00:07:13;12.77;;;11.48;;
66830;SDS011;53739;44.224;22.528;2023-06-22T00:09:39;15.43;;;11.40;;
66830;SDS011;53739;44.224;22.528;2023-06-22T00:12:05;17.27;;;12.00;;
66830;SDS011;53739;44.224;22.528;2023-06-22T00:14:31;16.67;;;12.70;;
66830;SDS011;53739;44.224;22.528;2023-06-22T00:16:57;15.23;;;12.88;;
66830;SDS011;53739;44.224;22.528;2023-06-22T00:19:24;13.93;;;12.35;;
66830;SDS011;53739;44.224;22.528;2023-06-22T00:21:50;13.43;;;11.57;;
66830;SDS011;53739;44.224;22.528;2023-06-22T00:24:24;15.32;;;12.23;;
66830;SDS011;53739;44.224;22.528;2023-06-22T00:26:50;18.98;;;13.10;;
66830;SDS011;53739;44.224;22.528;2023-06-22T00:29:16;13.68;;;12.18;;
66830;SDS011;53739;44.224;22.528;2023-06-22T00:31:43;15.85;;;12.80;;
66830;SDS011;53739;44.224;22.528;2023-06-22T00:34:12;18.02;;;12.27;;
66830;SDS011;53739;44.224;22.528;2023-06-22T00:36:38;18.48;;;13.02;;
66830;SDS011;53739;44.224;22.528;2023-06-22T00:39:06;18.40;;;12.38;;
66830;SDS011;53739;44.224;22.528;2023-06-22T00:41:32;15.05;;;11.30;;
66830;SDS011;53739;44.224;22.528;2023-06-22T00:43:59;16.45;;;11.48;;
66830;SDS011;53739;44.224;22.528;2023-06-22T00:46:25;13.70;;;12.05;;
66830;SDS011;53739;44.224;22.528;2023-06-22T00:48:51;15.68;;;12.00;;
66830;SDS011;53739;44.224;22.528;2023-06-22T00:51:17;13.20;;;11.85;;
66830;SDS011;53739;44.224;22.528;2023-06-22T00:53:49;12.63;;;11.40;;
66830;SDS011;53739;44.224;22.528;2023-06-22T00:56:16;18.15;;;12.35;;
66830;SDS011;53739;44.224;22.528;2023-06-22T00:58:45;13.38;;;11.80;;
66830;SDS011;53739;44.224;22.528;2023-06-22T01:01:12;13.23;;;10.88;;
66830;SDS011;53739;44.224;22.528;2023-06-22T01:03:39;15.57;;;12.25;;
66830;SDS011;53739;44.224;22.528;2023-06-22T01:06:07;14.35;;;12.45;;
66830;SDS011;53739;44.224;22.528;2023-06-22T01:14:00;17.58;;;12.48;;
66830;SDS011;53739;44.224;22.528;2023-06-22T01:16:33;14.52;;;13.02;;
66830;SDS011;53739;44.224;22.528;2023-06-22T01:19:01;16.50;;;12.90;;
66830;SDS011;53739;44.224;22.528;2023-06-22T01:21:28;15.13;;;13.35;;
66830;SDS011;53739;44.224;22.528;2023-06-22T01:26:42;14.35;;;12.85;;
66830;SDS011;53739;44.224;22.528;2023-06-22T01:29:10;14.85;;;12.70;;
66830;SDS011;53739;44.224;22.528;2023-06-22T01:31:38;14.57;;;13.00;;
66830;SDS011;53739;44.224;22.528;2023-06-22T01:34:06;18.55;;;13.43;;
66830;SDS011;53739;44.224;22.528;2023-06-22T01:36:33;16.27;;;12.70;;
66830;SDS011;53739;44.224;22.528;2023-06-22T01:38:59;21.98;;;13.85;;
66830;SDS011;53739;44.224;22.528;2023-06-22T01:41:26;20.95;;;13.27;;
66830;SDS011;53739;44.224;22.528;2023-06-22T01:43:54;19.42;;;14.02;;
66830;SDS011;53739;44.224;22.528;2023-06-22T01:46:21;16.88;;;13.98;;
66830;SDS011;53739;44.224;22.528;2023-06-22T01:48:47;14.77;;;13.20;;
66830;SDS011;53739;44.224;22.528;2023-06-22T01:51:13;14.95;;;13.45;;
66830;SDS011;53739;44.224;22.528;2023-06-22T01:53:40;16.25;;;13.80;;
66830;SDS011;53739;44.224;22.528;2023-06-22T01:56:06;15.45;;;13.30;;
66830;SDS011;53739;44.224;22.528;2023-06-22T01:58:32;15.57;;;13.88;;
66830;SDS011;53739;44.224;22.528;2023-06-22T02:01:09;18.48;;;13.60;;
66830;SDS011;53739;44.224;22.528;2023-06-22T02:03:50;19.27;;;13.52;;
66830;SDS011;53739;44.224;22.528;2023-06-22T02:06:20;14.55;;;13.05;;
66830;SDS011;53739;44.224;22.528;2023-06-22T02:08:49;16.30;;;14.05;;
66830;SDS011;53739;44.224;22.528;2023-06-22T02:11:16;15.80;;;13.60;;
66830;SDS011;53739;44.224;22.528;2023-06-22T02:13:44;15.80;;;12.93;;
66830;SDS011;53739;44.224;22.528;2023-06-22T02:16:11;17.10;;;13.18;;
66830;SDS011;53739;44.224;22.528;2023-06-22T02:18:37;16.23;;;14.02;;
66830;SDS011;53739;44.224;22.528;2023-06-22T02:21:05;17.15;;;13.85;;
66830;SDS011;53739;44.224;22.528;2023-06-22T02:23:32;19.38;;;14.07;;
66830;SDS011;53739;44.224;22.528;2023-06-22T02:26:01;18.27;;;13.65;;
66830;SDS011;53739;44.224;22.528;2023-06-22T02:28:27;15.35;;;13.70;;
66830;SDS011;53739;44.224;22.528;2023-06-22T02:30:53;14.75;;;13.25;;
66830;SDS011;53739;44.224;22.528;2023-06-22T02:33:19;17.75;;;13.60;;
66830;SDS011;53739;44.224;22.528;2023-06-22T02:35:46;16.70;;;14.90;;
66830;SDS011;53739;44.224;22.528;2023-06-22T02:38:14;15.40;;;13.80;;
66830;SDS011;53739;44.224;22.528;2023-06-22T02:40:40;15.55;;;13.40;;
66830;SDS011;53739;44.224;22.528;2023-06-22T02:43:06;14.30;;;12.65;;
66830;SDS011;53739;44.224;22.528;2023-06-22T02:45:33;15.80;;;13.23;;
66830;SDS011;53739;44.224;22.528;2023-06-22T02:47:59;14.98;;;13.43;;
66830;SDS011;53739;44.224;22.528;2023-06-22T02:50:25;16.05;;;13.40;;
66830;SDS011;53739;44.224;22.528;2023-06-22T02:52:51;15.65;;;13.68;;
66830;SDS011;53739;44.224;22.528;2023-06-22T02:55:17;20.00;;;13.13;;
66830;SDS011;53739;44.224;22.528;2023-06-22T02:57:43;15.25;;;13.05;;
66830;SDS011;53739;44.224;22.528;2023-06-22T03:00:12;15.32;;;13.70;;
66830;SDS011;53739;44.224;22.528;2023-06-22T03:02:48;16.40;;;14.00;;
66830;SDS011;53739;44.224;22.528;2023-06-22T03:05:15;15.52;;;13.40;;
66830;SDS011;53739;44.224;22.528;2023-06-22T03:07:43;17.98;;;13.57;;
66830;SDS011;53739;44.224;22.528;2023-06-22T03:10:10;15.00;;;13.40;;
66830;SDS011;53739;44.224;22.528;2023-06-22T03:12:37;16.27;;;13.73;;
66830;SDS011;53739;44.224;22.528;2023-06-22T03:15:04;16.15;;;13.93;;
66830;SDS011;53739;44.224;22.528;2023-06-22T03:17:30;15.60;;;13.93;;
66830;SDS011;53739;44.224;22.528;2023-06-22T03:19:56;16.80;;;13.77;;
66830;SDS011;53739;44.224;22.528;2023-06-22T03:22:22;16.25;;;13.98;;
66830;SDS011;53739;44.224;22.528;2023-06-22T03:24:48;17.13;;;13.43;;
66830;SDS011;53739;44.224;22.528;2023-06-22T03:27:15;18.90;;;13.80;;
66830;SDS011;53739;44.224;22.528;2023-06-22T03:29:41;15.23;;;13.35;;
66830;SDS011;53739;44.224;22.528;2023-06-22T03:32:07;15.38;;;13.48;;
66830;SDS011;53739;44.224;22.528;2023-06-22T03:34:33;16.10;;;14.38;;
66830;SDS011;53739;44.224;22.528;2023-06-22T03:37:01;15.07;;;13.27;;
66830;SDS011;53739;44.224;22.528;2023-06-22T03:39:28;18.35;;;13.88;;
66830;SDS011;53739;44.224;22.528;2023-06-22T03:41:54;15.30;;;13.80;;
66830;SDS011;53739;44.224;22.528;2023-06-22T03:44:20;17.85;;;13.85;;
66830;SDS011;53739;44.224;22.528;2023-06-22T03:46:46;20.33;;;14.18;;
66830;SDS011;53739;44.224;22.528;2023-06-22T03:49:12;19.02;;;14.57;;
66830;SDS011;53739;44.224;22.528;2023-06-22T03:51:38;17.60;;;14.48;;
66830;SDS011;53739;44.224;22.528;2023-06-22T03:54:05;17.08;;;13.98;;
66830;SDS011;53739;44.224;22.528;2023-06-22T03:56:31;16.50;;;14.68;;
66830;SDS011;53739;44.224;22.528;2023-06-22T03:58:57;17.67;;;14.63;;
66830;SDS011;53739;44.224;22.528;2023-06-22T04:01:23;15.98;;;14.00;;
66830;SDS011;53739;44.224;22.528;2023-06-22T04:03:49;18.02;;;14.35;;
66830;SDS011;53739;44.224;22.528;2023-06-22T04:06:15;24.55;;;14.40;;
66830;SDS011;53739;44.224;22.528;2023-06-22T04:08:41;17.65;;;14.07;;
66830;SDS011;53739;44.224;22.528;2023-06-22T04:11:07;15.25;;;13.65;;
66830;SDS011;53739;44.224;22.528;2023-06-22T04:13:34;16.55;;;14.13;;
66830;SDS011;53739;44.224;22.528;2023-06-22T04:16:00;16.38;;;14.68;;
66830;SDS011;53739;44.224;22.528;2023-06-22T04:18:26;16.65;;;14.57;;
66830;SDS011;53739;44.224;22.528;2023-06-22T04:20:52;16.90;;;14.20;;
66830;SDS011;53739;44.224;22.528;2023-06-22T04:23:18;19.13;;;14.55;;
66830;SDS011;53739;44.224;22.528;2023-06-22T04:25:44;19.35;;;15.90;;
66830;SDS011;53739;44.224;22.528;2023-06-22T04:28:10;25.42;;;19.65;;
66830;SDS011;53739;44.224;22.528;2023-06-22T04:30:37;21.92;;;16.58;;
66830;SDS011;53739;44.224;22.528;2023-06-22T04:33:14;21.55;;;15.80;;
66830;SDS011;53739;44.224;22.528;2023-06-22T04:35:41;24.55;;;17.98;;
66830;SDS011;53739;44.224;22.528;2023-06-22T04:38:07;23.17;;;17.67;;
66830;SDS011;53739;44.224;22.528;2023-06-22T04:40:38;24.45;;;17.60;;
66830;SDS011;53739;44.224;22.528;2023-06-22T04:43:04;25.48;;;19.00;;
66830;SDS011;53739;44.224;22.528;2023-06-22T04:45:31;20.90;;;18.55;;
66830;SDS011;53739;44.224;22.528;2023-06-22T04:47:58;22.35;;;17.90;;
66830;SDS011;53739;44.224;22.528;2023-06-22T04:50:24;20.00;;;17.98;;
66830;SDS011;53739;44.224;22.528;2023-06-22T04:52:50;20.48;;;16.75;;
66830;SDS011;53739;44.224;22.528;2023-06-22T04:55:17;22.92;;;17.50;;
66830;SDS011;53739;44.224;22.528;2023-06-22T04:57:48;23.20;;;17.42;;
66830;SDS011;53739;44.224;22.528;2023-06-22T05:00:18;21.45;;;16.67;;
66830;SDS011;53739;44.224;22.528;2023-06-22T05:02:45;22.27;;;17.42;;
66830;SDS011;53739;44.224;22.528;2023-06-22T05:05:12;22.60;;;17.55;;
66830;SDS011;53739;44.224;22.528;2023-06-22T05:07:42;22.38;;;17.08;;
66830;SDS011;53739;44.224;22.528;2023-06-22T05:10:09;26.42;;;17.05;;
66830;SDS011;53739;44.224;22.528;2023-06-22T05:12:36;20.65;;;17.45;;
66830;SDS011;53739;44.224;22.528;2023-06-22T05:15:03;20.80;;;17.52;;
66830;SDS011;53739;44.224;22.528;2023-06-22T05:17:29;19.42;;;17.27;;
66830;SDS011;53739;44.224;22.528;2023-06-22T05:19:55;24.17;;;16.92;;
66830;SDS011;53739;44.224;22.528;2023-06-22T05:22:21;19.48;;;16.88;;
66830;SDS011;53739;44.224;22.528;2023-06-22T05:24:47;22.35;;;17.45;;
66830;SDS011;53739;44.224;22.528;2023-06-22T05:27:14;23.52;;;18.48;;
66830;SDS011;53739;44.224;22.528;2023-06-22T05:29:40;23.45;;;18.02;;
66830;SDS011;53739;44.224;22.528;2023-06-22T05:32:07;21.35;;;15.15;;
66830;SDS011;53739;44.224;22.528;2023-06-22T05:34:34;20.15;;;14.45;;
66830;SDS011;53739;44.224;22.528;2023-06-22T05:37:00;17.05;;;13.88;;
66830;SDS011;53739;44.224;22.528;2023-06-22T05:39:26;16.02;;;13.82;;
66830;SDS011;53739;44.224;22.528;2023-06-22T05:41:53;18.88;;;13.20;;
66830;SDS011;53739;44.224;22.528;2023-06-22T05:44:19;26.23;;;13.45;;
66830;SDS011;53739;44.224;22.528;2023-06-22T05:46:45;17.00;;;12.73;;
66830;SDS011;53739;44.224;22.528;2023-06-22T05:49:15;14.90;;;13.20;;
66830;SDS011;53739;44.224;22.528;2023-06-22T05:51:44;15.93;;;12.70;;
66830;SDS011;53739;44.224;22.528;2023-06-22T05:54:10;17.40;;;12.80;;
66830;SDS011;53739;44.224;22.528;2023-06-22T05:56:38;16.67;;;13.82;;
66830;SDS011;53739;44.224;22.528;2023-06-22T05:59:04;15.40;;;12.43;;
66830;SDS011;53739;44.224;22.528;2023-06-22T06:01:30;18.80;;;13.68;;
66830;SDS011;53739;44.224;22.528;2023-06-22T06:03:59;18.98;;;13.15;;
66830;SDS011;53739;44.224;22.528;2023-06-22T06:06:25;15.85;;;14.18;;
66830;SDS011;53739;44.224;22.528;2023-06-22T06:08:53;14.82;;;12.82;;
66830;SDS011;53739;44.224;22.528;2023-06-22T06:11:20;16.30;;;13.52;;
66830;SDS011;53739;44.224;22.528;2023-06-22T06:13:46;16.75;;;13.70;;
66830;SDS011;53739;44.224;22.528;2023-06-22T06:16:12;16.63;;;14.13;;
66830;SDS011;53739;44.224;22.528;2023-06-22T06:18:38;16.17;;;14.52;;
66830;SDS011;53739;44.224;22.528;2023-06-22T06:21:04;16.55;;;12.88;;
66830;SDS011;53739;44.224;22.528;2023-06-22T06:23:31;17.38;;;13.07;;
66830;SDS011;53739;44.224;22.528;2023-06-22T06:25:57;16.13;;;14.18;;
66830;SDS011;53739;44.224;22.528;2023-06-22T06:28:24;14.80;;;12.77;;
66830;SDS011;53739;44.224;22.528;2023-06-22T06:30:50;18.48;;;12.15;;
66830;SDS011;53739;44.224;22.528;2023-06-22T06:33:17;16.58;;;14.45;;
66830;SDS011;53739;44.224;22.528;2023-06-22T06:35:43;15.15;;;13.57;;
66830;SDS011;53739;44.224;22.528;2023-06-22T06:38:09;15.10;;;12.55;;
66830;SDS011;53739;44.224;22.528;2023-06-22T06:40:35;14.65;;;13.13;;
66830;SDS011;53739;44.224;22.528;2023-06-22T06:43:01;15.40;;;12.63;;
66830;SDS011;53739;44.224;22.528;2023-06-22T06:45:28;15.02;;;13.32;;
66830;SDS011;53739;44.224;22.528;2023-06-22T06:47:56;14.10;;;12.70;;
66830;SDS011;53739;44.224;22.528;2023-06-22T06:50:22;25.70;;;13.65;;
66830;SDS011;53739;44.224;22.528;2023-06-22T06:52:48;13.57;;;12.18;;
66830;SDS011;53739;44.224;22.528;2023-06-22T06:55:17;13.82;;;12.43;;
66830;SDS011;53739;44.224;22.528;2023-06-22T06:57:44;13.10;;;11.73;;
66830;SDS011;53739;44.224;22.528;2023-06-22T07:00:13;13.55;;;12.23;;
66830;SDS011;53739;44.224;22.528;2023-06-22T07:02:40;13.52;;;12.13;;
66830;SDS011;53739;44.224;22.528;2023-06-22T07:05:07;13.35;;;11.95;;
66830;SDS011;53739;44.224;22.528;2023-06-22T07:07:33;15.32;;;11.88;;
66830;SDS011;53739;44.224;22.528;2023-06-22T07:10:00;14.27;;;12.80;;
66830;SDS011;53739;44.224;22.528;2023-06-22T07:12:26;14.60;;;13.10;;
66830;SDS011;53739;44.224;22.528;2023-06-22T07:14:52;18.25;;;14.00;;
66830;SDS011;53739;44.224;22.528;2023-06-22T07:17:19;13.95;;;12.48;;
66830;SDS011;53739;44.224;22.528;2023-06-22T07:19:45;17.23;;;12.70;;
66830;SDS011;53739;44.224;22.528;2023-06-22T07:22:11;15.82;;;13.38;;
66830;SDS011;53739;44.224;22.528;2023-06-22T07:24:37;14.55;;;12.27;;
66830;SDS011;53739;44.224;22.528;2023-06-22T07:27:03;19.92;;;12.80;;
66830;SDS011;53739;44.224;22.528;2023-06-22T07:29:31;17.88;;;13.10;;
66830;SDS011;53739;44.224;22.528;2023-06-22T07:31:58;16.40;;;13.15;;
66830;SDS011;53739;44.224;22.528;2023-06-22T07:34:25;16.13;;;13.05;;
66830;SDS011;53739;44.224;22.528;2023-06-22T07:36:52;14.43;;;13.05;;
66830;SDS011;53739;44.224;22.528;2023-06-22T07:39:18;20.42;;;13.32;;
66830;SDS011;53739;44.224;22.528;2023-06-22T07:41:47;14.27;;;12.80;;
66830;SDS011;53739;44.224;22.528;2023-06-22T07:44:13;16.48;;;13.60;;
66830;SDS011;53739;44.224;22.528;2023-06-22T07:46:39;20.55;;;13.38;;
66830;SDS011;53739;44.224;22.528;2023-06-22T07:49:05;15.85;;;13.75;;
66830;SDS011;53739;44.224;22.528;2023-06-22T07:51:33;15.75;;;13.43;;
66830;SDS011;53739;44.224;22.528;2023-06-22T07:53:59;14.52;;;12.43;;
66830;SDS011;53739;44.224;22.528;2023-06-22T07:56:25;15.55;;;11.40;;
66830;SDS011;53739;44.224;22.528;2023-06-22T07:58:51;15.32;;;12.75;;
66830;SDS011;53739;44.224;22.528;2023-06-22T08:01:18;15.10;;;10.90;;
66830;SDS011;53739;44.224;22.528;2023-06-22T08:03:49;15.45;;;12.10;;
66830;SDS011;53739;44.224;22.528;2023-06-22T08:06:16;14.45;;;11.90;;
66830;SDS011;53739;44.224;22.528;2023-06-22T08:08:42;13.35;;;12.05;;
66830;SDS011;53739;44.224;22.528;2023-06-22T08:11:09;13.15;;;11.77;;
66830;SDS011;53739;44.224;22.528;2023-06-22T08:13:35;18.35;;;12.40;;
66830;SDS011;53739;44.224;22.528;2023-06-22T08:16:01;16.23;;;11.52;;
66830;SDS011;53739;44.224;22.528;2023-06-22T08:18:27;13.85;;;12.18;;
66830;SDS011;53739;44.224;22.528;2023-06-22T08:20:54;13.93;;;12.18;;
66830;SDS011;53739;44.224;22.528;2023-06-22T08:23:20;21.58;;;12.70;;
66830;SDS011;53739;44.224;22.528;2023-06-22T08:25:46;18.80;;;12.43;;
66830;SDS011;53739;44.224;22.528;2023-06-22T08:28:13;16.67;;;12.38;;
66830;SDS011;53739;44.224;22.528;2023-06-22T08:30:39;13.45;;;11.00;;
66830;SDS011;53739;44.224;22.528;2023-06-22T08:33:05;18.98;;;13.27;;
66830;SDS011;53739;44.224;22.528;2023-06-22T08:35:31;16.75;;;11.98;;
66830;SDS011;53739;44.224;22.528;2023-06-22T08:37:57;21.83;;;12.45;;
66830;SDS011;53739;44.224;22.528;2023-06-22T08:40:24;15.30;;;12.55;;
66830;SDS011;53739;44.224;22.528;2023-06-22T08:42:51;14.82;;;12.00;;
66830;SDS011;53739;44.224;22.528;2023-06-22T08:45:17;13.73;;;10.68;;
66830;SDS011;53739;44.224;22.528;2023-06-22T08:47:43;17.25;;;11.65;;
66830;SDS011;53739;44.224;22.528;2023-06-22T08:50:10;14.00;;;12.30;;
66830;SDS011;53739;44.224;22.528;2023-06-22T08:52:36;14.95;;;12.20;;
66830;SDS011;53739;44.224;22.528;2023-06-22T08:55:03;15.27;;;12.10;;
66830;SDS011;53739;44.224;22.528;2023-06-22T08:57:29;14.15;;;12.73;;
66830;SDS011;53739;44.224;22.528;2023-06-22T08:59:57;20.27;;;13.60;;
66830;SDS011;53739;44.224;22.528;2023-06-22T09:02:24;15.98;;;12.90;;
66830;SDS011;53739;44.224;22.528;2023-06-22T09:04:51;16.88;;;12.85;;
66830;SDS011;53739;44.224;22.528;2023-06-22T09:07:24;17.52;;;13.38;;
66830;SDS011;53739;44.224;22.528;2023-06-22T09:09:51;14.75;;;13.05;;
66830;SDS011;53739;44.224;22.528;2023-06-22T09:12:20;14.80;;;13.30;;
66830;SDS011;53739;44.224;22.528;2023-06-22T09:14:50;17.15;;;12.95;;
66830;SDS011;53739;44.224;22.528;2023-06-22T09:17:16;19.77;;;12.60;;
66830;SDS011;53739;44.224;22.528;2023-06-22T09:19:42;19.67;;;12.23;;
66830;SDS011;53739;44.224;22.528;2023-06-22T09:22:09;16.83;;;13.18;;
66830;SDS011;53739;44.224;22.528;2023-06-22T09:24:35;17.60;;;12.48;;
66830;SDS011;53739;44.224;22.528;2023-06-22T09:27:01;15.15;;;12.15;;
66830;SDS011;53739;44.224;22.528;2023-06-22T09:29:27;15.43;;;11.45;;
66830;SDS011;53739;44.224;22.528;2023-06-22T09:31:53;14.02;;;12.27;;
66830;SDS011;53739;44.224;22.528;2023-06-22T09:34:20;17.60;;;12.57;;
66830;SDS011;53739;44.224;22.528;2023-06-22T09:36:47;15.05;;;12.45;;
66830;SDS011;53739;44.224;22.528;2023-06-22T09:39:13;18.60;;;12.40;;
66830;SDS011;53739;44.224;22.528;2023-06-22T09:41:39;23.63;;;12.65;;
66830;SDS011;53739;44.224;22.528;2023-06-22T09:44:05;23.85;;;13.57;;
66830;SDS011;53739;44.224;22.528;2023-06-22T09:46:31;16.33;;;11.85;;
66830;SDS011;53739;44.224;22.528;2023-06-22T09:48:57;17.88;;;13.45;;
66830;SDS011;53739;44.224;22.528;2023-06-22T09:51:23;22.48;;;13.30;;
66830;SDS011;53739;44.224;22.528;2023-06-22T09:53:50;16.60;;;12.90;;
66830;SDS011;53739;44.224;22.528;2023-06-22T09:56:16;16.85;;;12.70;;
66830;SDS011;53739;44.224;22.528;2023-06-22T09:58:43;14.40;;;12.82;;
66830;SDS011;53739;44.224;22.528;2023-06-22T10:01:09;13.43;;;11.68;;
66830;SDS011;53739;44.224;22.528;2023-06-22T10:03:36;17.23;;;12.60;;
66830;SDS011;53739;44.224;22.528;2023-06-22T10:06:03;17.30;;;12.60;;
66830;SDS011;53739;44.224;22.528;2023-06-22T10:08:29;16.35;;;13.35;;
66830;SDS011;53739;44.224;22.528;2023-06-22T10:10:55;19.48;;;12.70;;
66830;SDS011;53739;44.224;22.528;2023-06-22T10:13:21;16.73;;;13.25;;
66830;SDS011;53739;44.224;22.528;2023-06-22T10:15:47;15.02;;;12.38;;
66830;SDS011;53739;44.224;22.528;2023-06-22T10:18:16;14.07;;;12.57;;
66830;SDS011;53739;44.224;22.528;2023-06-22T10:20:43;17.92;;;13.25;;
66830;SDS011;53739;44.224;22.528;2023-06-22T10:23:09;16.67;;;12.55;;
66830;SDS011;53739;44.224;22.528;2023-06-22T10:25:35;15.80;;;13.07;;
66830;SDS011;53739;44.224;22.528;2023-06-22T10:28:01;17.10;;;13.07;;
66830;SDS011;53739;44.224;22.528;2023-06-22T10:30:27;17.10;;;13.95;;
66830;SDS011;53739;44.224;22.528;2023-06-22T10:32:54;17.90;;;13.73;;
66830;SDS011;53739;44.224;22.528;2023-06-22T10:35:20;15.75;;;13.88;;
66830;SDS011;53739;44.224;22.528;2023-06-22T10:37:46;19.35;;;12.88;;
66830;SDS011;53739;44.224;22.528;2023-06-22T10:40:13;17.83;;;13.63;;
66830;SDS011;53739;44.224;22.528;2023-06-22T10:42:40;16.92;;;13.60;;
66830;SDS011;53739;44.224;22.528;2023-06-22T10:45:07;18.60;;;13.00;;
66830;SDS011;53739;44.224;22.528;2023-06-22T10:47:33;18.25;;;13.35;;
66830;SDS011;53739;44.224;22.528;2023-06-22T10:49:59;12.80;;;11.48;;
66830;SDS011;53739;44.224;22.528;2023-06-22T10:52:25;15.43;;;12.75;;
66830;SDS011;53739;44.224;22.528;2023-06-22T10:54:51;21.02;;;14.63;;
66830;SDS011;53739;44.224;22.528;2023-06-22T10:57:18;15.27;;;13.57;;
66830;SDS011;53739;44.224;22.528;2023-06-22T10:59:44;16.17;;;13.25;;
66830;SDS011;53739;44.224;22.528;2023-06-22T11:02:10;16.45;;;12.40;;
66830;SDS011;53739;44.224;22.528;2023-06-22T11:04:36;19.52;;;12.25;;
66830;SDS011;53739;44.224;22.528;2023-06-22T11:07:02;19.17;;;12.15;;
66830;SDS011;53739;44.224;22.528;2023-06-22T11:09:31;15.57;;;12.23;;
66830;SDS011;53739;44.224;22.528;2023-06-22T11:11:58;24.80;;;12.35;;
66830;SDS011;53739;44.224;22.528;2023-06-22T11:14:24;16.10;;;12.98;;
66830;SDS011;53739;44.224;22.528;2023-06-22T11:16:51;20.38;;;13.20;;
66830;SDS011;53739;44.224;22.528;2023-06-22T11:19:17;17.80;;;12.32;;
66830;SDS011;53739;44.224;22.528;2023-06-22T11:21:44;21.75;;;12.60;;
66830;SDS011;53739;44.224;22.528;2023-06-22T11:24:10;20.95;;;13.77;;
66830;SDS011;53739;44.224;22.528;2023-06-22T11:26:36;19.85;;;13.52;;
66830;SDS011;53739;44.224;22.528;2023-06-22T11:29:02;22.83;;;13.48;;
66830;SDS011;53739;44.224;22.528;2023-06-22T11:31:35;18.73;;;13.13;;
66830;SDS011;53739;44.224;22.528;2023-06-22T11:34:01;20.42;;;12.93;;
66830;SDS011;53739;44.224;22.528;2023-06-22T11:36:29;18.50;;;11.93;;
66830;SDS011;53739;44.224;22.528;2023-06-22T11:38:58;17.95;;;12.25;;
66830;SDS011;53739;44.224;22.528;2023-06-22T11:41:24;14.52;;;11.90;;
66830;SDS011;53739;44.224;22.528;2023-06-22T11:43:50;16.25;;;11.77;;
66830;SDS011;53739;44.224;22.528;2023-06-22T11:46:16;15.55;;;12.65;;
66830;SDS011;53739;44.224;22.528;2023-06-22T11:48:42;13.13;;;11.30;;
66830;SDS011;53739;44.224;22.528;2023-06-22T11:51:08;15.25;;;12.05;;
66830;SDS011;53739;44.224;22.528;2023-06-22T11:53:35;21.27;;;11.90;;
66830;SDS011;53739;44.224;22.528;2023-06-22T11:56:01;14.27;;;11.30;;
66830;SDS011;53739;44.224;22.528;2023-06-22T11:58:27;14.38;;;11.93;;
66830;SDS011;53739;44.224;22.528;2023-06-22T12:00:53;13.88;;;11.57;;
66830;SDS011;53739;44.224;22.528;2023-06-22T12:03:19;15.73;;;12.13;;
66830;SDS011;53739;44.224;22.528;2023-06-22T12:05:50;15.18;;;12.73;;
66830;SDS011;53739;44.224;22.528;2023-06-22T12:08:17;15.00;;;13.48;;
66830;SDS011;53739;44.224;22.528;2023-06-22T12:10:43;16.13;;;13.10;;
66830;SDS011;53739;44.224;22.528;2023-06-22T12:13:09;16.58;;;13.20;;
66830;SDS011;53739;44.224;22.528;2023-06-22T12:15:36;22.13;;;13.45;;
66830;SDS011;53739;44.224;22.528;2023-06-22T12:18:02;15.30;;;13.65;;
66830;SDS011;53739;44.224;22.528;2023-06-22T12:20:28;15.70;;;13.57;;
66830;SDS011;53739;44.224;22.528;2023-06-22T12:22:54;18.85;;;13.23;;
66830;SDS011;53739;44.224;22.528;2023-06-22T12:25:23;15.20;;;13.43;;
66830;SDS011;53739;44.224;22.528;2023-06-22T12:27:49;16.77;;;13.10;;
66830;SDS011;53739;44.224;22.528;2023-06-22T12:30:16;15.73;;;14.23;;
66830;SDS011;53739;44.224;22.528;2023-06-22T12:32:42;17.48;;;13.63;;
66830;SDS011;53739;44.224;22.528;2023-06-22T12:35:08;20.48;;;13.73;;
66830;SDS011;53739;44.224;22.528;2023-06-22T12:38:00;16.33;;;13.88;;
66830;SDS011;53739;44.224;22.528;2023-06-22T12:40:25;15.07;;;13.65;;
66830;SDS011;53739;44.224;22.528;2023-06-22T12:42:54;15.73;;;13.68;;
66830;SDS011;53739;44.224;22.528;2023-06-22T12:45:20;14.32;;;12.93;;
66830;SDS011;53739;44.224;22.528;2023-06-22T12:47:49;15.27;;;13.70;;
66830;SDS011;53739;44.224;22.528;2023-06-22T12:50:17;15.52;;;13.02;;
66830;SDS011;53739;44.224;22.528;2023-06-22T12:52:46;14.95;;;13.10;;
66830;SDS011;53739;44.224;22.528;2023-06-22T12:55:13;17.48;;;12.93;;
66830;SDS011;53739;44.224;22.528;2023-06-22T12:57:39;17.40;;;14.57;;
66830;SDS011;53739;44.224;22.528;2023-06-22T13:00:05;16.95;;;14.32;;
66830;SDS011;53739;44.224;22.528;2023-06-22T13:02:33;15.32;;;13.57;;
66830;SDS011;53739;44.224;22.528;2023-06-22T13:04:59;30.75;;;14.45;;
66830;SDS011;53739;44.224;22.528;2023-06-22T13:07:25;17.33;;;14.98;;
66830;SDS011;53739;44.224;22.528;2023-06-22T13:09:51;16.33;;;14.30;;
66830;SDS011;53739;44.224;22.528;2023-06-22T13:12:17;15.65;;;14.15;;
66830;SDS011;53739;44.224;22.528;2023-06-22T13:14:45;16.00;;;14.40;;
66830;SDS011;53739;44.224;22.528;2023-06-22T13:17:12;19.90;;;14.43;;
66830;SDS011;53739;44.224;22.528;2023-06-22T13:19:39;20.83;;;17.05;;
66830;SDS011;53739;44.224;22.528;2023-06-22T13:22:05;40.38;;;26.05;;
66830;SDS011;53739;44.224;22.528;2023-06-22T13:24:32;16.50;;;14.88;;
66830;SDS011;53739;44.224;22.528;2023-06-22T13:26:58;15.63;;;13.70;;
66830;SDS011;53739;44.224;22.528;2023-06-22T13:29:24;15.65;;;13.75;;
66830;SDS011;53739;44.224;22.528;2023-06-22T13:31:50;19.75;;;13.85;;
66830;SDS011;53739;44.224;22.528;2023-06-22T13:34:16;15.82;;;14.27;;
66830;SDS011;53739;44.224;22.528;2023-06-22T13:36:45;19.05;;;14.73;;
66830;SDS011;53739;44.224;22.528;2023-06-22T13:39:11;16.40;;;14.70;;
66830;SDS011;53739;44.224;22.528;2023-06-22T13:41:37;14.85;;;13.35;;
66830;SDS011;53739;44.224;22.528;2023-06-22T13:44:03;15.70;;;12.93;;
66830;SDS011;53739;44.224;22.528;2023-06-22T13:46:29;15.40;;;13.48;;
66830;SDS011;53739;44.224;22.528;2023-06-22T13:48:56;14.75;;;13.25;;
66830;SDS011;53739;44.224;22.528;2023-06-22T13:51:23;14.38;;;12.98;;
66830;SDS011;53739;44.224;22.528;2023-06-22T13:53:49;15.20;;;13.27;;
66830;SDS011;53739;44.224;22.528;2023-06-22T13:56:15;16.30;;;13.95;;
66830;SDS011;53739;44.224;22.528;2023-06-22T13:58:41;15.18;;;13.23;;
66830;SDS011;53739;44.224;22.528;2023-06-22T14:01:08;15.32;;;12.88;;
66830;SDS011;53739;44.224;22.528;2023-06-22T14:03:34;14.40;;;12.90;;
66830;SDS011;53739;44.224;22.528;2023-06-22T14:06:00;17.63;;;13.52;;
66830;SDS011;53739;44.224;22.528;2023-06-22T14:08:27;16.35;;;12.52;;
66830;SDS011;53739;44.224;22.528;2023-06-22T14:10:53;13.20;;;11.88;;
66830;SDS011;53739;44.224;22.528;2023-06-22T14:13:19;15.43;;;12.38;;
66830;SDS011;53739;44.224;22.528;2023-06-22T14:15:45;13.68;;;12.15;;